Latest Weather Observations for Condobolin Airport

IDN60801

Issued at 9:32 am EDT Tuesday 28 February 2017 (issued every 30 minutes, with the page automatically refreshed every 10 minutes)

About weather observations | Map of weather stations | Latest weather observations for NSW | Other Formats
Station Details ID: 050137 Name: CONDOBOLIN AIRPORT AWS Lat: -33.07 Lon: 147.21 Height: 192.6 m
Data from the previous 72 hours. | See also: Recent months at Condobolin Airport
Date/Time
EDT
Temp
°C
App
Temp
°C
Dew
Point
°C
Rel
Hum
%
Delta-T
°C
Wind Press
QNH
hPa
Press
MSL
hPa
Rain since
9am
mm
Dir  Spd
km/h
Gust
km/h
Spd
kts
Gust
kts
28/09:30am 23.7 21.8 13.0 51 6.2 ESE 15 20 8 11 1022.1 1021.1 0.0
28/09:00am 22.1 19.9 13.2 57 5.1 ESE 17 22 9 12 1022.0 1021.0 0.0
28/08:30am 20.4 17.9 12.4 60 4.5 ESE 17 20 9 11 1022.0 1021.0 0.0
28/08:00am 19.0 18.2 11.6 62 4.1 SE 7 11 4 6 1021.9 1020.9 0.0
28/07:30am 16.6 16.7 10.2 66 3.4 CALM 0 0 0 0 1021.6 1020.6 0.0
28/07:00am 16.0 15.0 10.3 69 3.0 E 6 7 3 4 1021.3 1020.3 0.0
28/06:30am 16.3 14.7 10.2 67 3.2 ESE 9 11 5 6 1020.9 1019.8 0.0
28/06:00am 16.5 15.2 9.9 65 3.5 ESE 7 9 4 5 1020.6 1019.5 0.0
28/05:30am 17.1 15.8 9.8 62 3.9 SE 7 9 4 5 1020.5 1019.4 0.0
28/05:00am 18.0 16.5 10.6 62 4.0 SE 9 13 5 7 1020.4 1019.3 0.0
28/04:30am 17.9 16.5 9.5 58 4.5 SSE 7 9 4 5 1020.2 1019.1 0.0
28/04:00am 18.3 16.3 8.8 54 5.0 ESE 9 13 5 7 1020.3 1019.2 0.0
28/03:30am 20.1 17.7 9.9 52 5.5 E 13 17 7 9 1020.2 1019.1 0.0
28/03:00am 20.2 17.6 9.2 49 5.9 ENE 13 17 7 9 1020.4 1019.3 0.0
28/02:30am 21.1 18.4 9.0 46 6.5 E 13 19 7 10 1020.5 1019.4 0.0
28/02:00am 21.9 18.8 8.8 43 7.0 E 15 20 8 11 1020.6 1019.5 0.0
28/01:30am 21.8 19.0 8.7 43 7.0 E 13 17 7 9 1020.7 1019.6 0.0
28/01:00am 22.4 19.9 8.1 40 7.6 E 11 15 6 8 1020.8 1019.7 0.0
28/12:30am 23.5 20.6 8.0 37 8.3 E 13 17 7 9 1020.5 1019.4 0.0
28/12:00am 24.5 21.1 7.6 34 9.0 E 15 20 8 11 1020.2 1019.1 0.0
 
Date/Time
EDT
Temp
°C
App
Temp
°C
Dew
Point
°C
Rel
Hum
%
Delta-T
°C
Wind Press
QNH
hPa
Press
MSL
hPa
Rain since
9am
mm
Dir  Spd
km/h
Gust
km/h
Spd
kts
Gust
kts
27/11:30pm 25.5 20.9 6.7 30 9.9 E 20 26 11 14 1020.1 1019.0 0.0
27/11:00pm 25.7 22.0 6.3 29 10.1 E 15 20 8 11 1020.0 1018.9 0.0
27/10:30pm 26.9 22.7 5.8 26 11.0 E 17 26 9 14 1019.6 1018.5 0.0
27/10:00pm 26.8 23.1 6.2 27 10.8 ESE 15 20 8 11 1019.2 1018.2 0.0
27/09:30pm 27.0 24.1 8.0 30 10.3 ESE 13 17 7 9 1018.9 1017.9 0.0
27/09:00pm 26.4 24.7 9.7 35 9.3 SE 9 11 5 6 1018.6 1017.6 0.0
27/08:30pm 28.1 26.0 9.9 32 10.3 ESE 11 17 6 9 1018.3 1017.3 0.0
27/08:00pm 29.1 27.3 9.3 29 11.1 ESE 9 13 5 7 1018.0 1017.0 0.0
27/07:30pm 30.3 27.3 9.2 27 11.9 ESE 15 20 8 11 1017.8 1016.8 0.0
27/07:00pm 31.1 27.7 9.3 26 12.3 ESE 17 22 9 12 1017.6 1016.6 0.0
27/06:30pm 30.7 27.0 10.1 28 11.8 SE 20 28 11 15 1017.6 1016.6 0.0
27/06:00pm 32.0 28.5 8.9 24 13.0 SE 17 28 9 15 1017.3 1016.3 0.0
27/05:30pm 31.9 28.7 10.0 26 12.6 ESE 17 24 9 13 1017.4 1016.4 0.0
27/05:00pm 32.0 29.3 8.9 24 13.0 ESE 13 20 7 11 1017.5 1016.5 0.0
27/04:30pm 32.4 29.4 9.2 24 13.2 E 15 26 8 14 1017.6 1016.6 0.0
27/04:00pm 32.1 28.1 9.0 24 13.1 ESE 20 33 11 18 1018.1 1017.1 0.0
27/03:30pm 31.8 28.6 9.9 26 12.6 ESE 17 28 9 15 1018.3 1017.3 0.0
27/03:00pm 31.2 28.0 10.0 27 12.1 ENE 17 24 9 13 1018.8 1017.8 0.0
27/02:30pm 29.9 26.6 9.4 28 11.6 E 17 28 9 15 1019.3 1018.3 0.0
27/02:00pm 30.8 27.3 10.2 28 11.8 ENE 19 32 10 17 1019.8 1018.7 0.0
27/01:30pm 29.8 26.8 11.8 33 10.5 E 19 28 10 15 1020.2 1019.1 0.0
27/01:00pm 29.1 26.3 11.2 33 10.3 ENE 17 30 9 16 1020.7 1019.6 0.0
27/12:30pm 27.6 24.3 11.6 37 9.3 E 20 32 11 17 1021.1 1020.0 0.0
27/12:00pm 27.9 24.8 12.3 38 9.1 NE 20 33 11 18 1021.6 1020.6 0.0
27/11:30am 26.9 24.0 12.9 42 8.2 ENE 20 32 11 17 1022.0 1021.0 0.0
27/11:00am 25.4 22.4 11.9 43 7.7 ENE 19 28 10 15 1022.3 1021.3 0.0
27/10:30am 24.1 21.0 12.1 47 6.9 E 20 30 11 16 1022.7 1021.7 0.0
27/10:00am 23.6 20.5 12.3 49 6.5 E 20 28 11 15 1022.8 1021.8 0.0
27/09:30am 22.7 20.5 12.0 50 6.1 ESE 15 20 8 11 1022.7 1021.7 0.0
27/09:00am 21.1 18.0 11.7 55 5.3 ESE 19 24 10 13 1022.6 1021.6 0.0
27/08:30am 19.4 17.1 11.7 61 4.3 ESE 15 20 8 11 1022.4 1021.4 0.0
27/08:00am 18.3 16.9 12.1 67 3.4 ESE 11 17 6 9 1022.0 1021.0 0.0
27/07:30am 16.4 15.6 11.8 74 2.5 E 7 9 4 5 1021.9 1020.9 0.0
27/07:00am 15.2 13.6 11.4 78 2.0 ESE 11 15 6 8 1021.6 1020.6 0.0
27/06:30am 15.0 14.0 10.2 73 2.5 ESE 6 7 3 4 1021.4 1020.4 0.0
27/06:00am 16.2 14.9 11.4 73 2.6 ESE 9 11 5 6 1021.1 1020.0 0.0
27/05:30am 16.3 14.9 11.0 71 2.9 ESE 9 13 5 7 1020.7 1019.6 0.0
27/05:00am 16.4 15.1 10.0 66 3.4 ESE 7 7 4 4 1020.5 1019.4 0.0
27/04:30am 17.2 15.6 10.1 63 3.8 ESE 9 11 5 6 1020.4 1019.3 0.0
27/04:00am 18.6 16.4 10.7 60 4.3 ENE 13 17 7 9 1020.3 1019.2 0.0
27/03:30am 19.5 17.0 11.0 58 4.7 E 15 19 8 10 1020.3 1019.2 0.0
27/03:00am 19.7 17.2 10.9 57 4.8 E 15 19 8 10 1020.4 1019.3 0.0
27/02:30am 20.5 18.0 10.9 54 5.3 E 15 19 8 10 1020.5 1019.4 0.0
27/02:00am 21.5 18.0 10.9 51 5.9 E 20 28 11 15 1020.6 1019.5 0.0
27/01:30am 22.0 18.7 10.8 49 6.2 E 19 24 10 13 1020.6 1019.5 0.0
27/01:00am 22.7 18.3 10.5 46 6.7 E 24 33 13 18 1020.3 1019.2 0.0
27/12:30am 23.4 19.6 11.1 46 6.9 E 22 35 12 19 1020.2 1019.1 0.0
27/12:00am 24.3 19.7 10.9 43 7.5 ENE 26 37 14 20 1019.8 1018.7 0.0
 
Date/Time
EDT
Temp
°C
App
Temp
°C
Dew
Point
°C
Rel
Hum
%
Delta-T
°C
Wind Press
QNH
hPa
Press
MSL
hPa
Rain since
9am
mm
Dir  Spd
km/h
Gust
km/h
Spd
kts
Gust
kts
26/11:30pm 24.8 21.1 10.3 40 8.1 ENE 20 32 11 17 1019.4 1018.4 0.0
26/11:00pm 25.6 21.7 9.4 36 8.9 ESE 20 26 11 14 1018.9 1017.9 0.0
26/10:30pm 26.7 22.0 9.1 33 9.7 ESE 24 32 13 17 1018.4 1017.4 0.0
26/10:00pm 27.0 23.0 8.9 32 10.0 ESE 20 32 11 17 1018.0 1017.0 0.0
26/09:30pm 26.7 24.1 9.5 34 9.6 ESE 13 19 7 10 1017.6 1016.6 0.0
26/09:00pm 27.3 24.8 9.6 33 9.9 ESE 13 19 7 10 1017.0 1016.0 0.0
26/08:30pm 28.0 25.5 9.8 32 10.2 SE 13 17 7 9 1016.5 1015.4 0.0
26/08:00pm 29.2 25.8 9.3 29 11.2 ESE 17 20 9 11 1016.1 1015.0 0.0
26/07:30pm 30.2 26.3 8.6 26 12.0 ESE 19 28 10 15 1015.9 1014.8 0.0
26/07:00pm 31.0 27.1 8.7 25 12.5 ESE 19 26 10 14 1015.7 1014.6 0.0
26/06:30pm 32.1 28.1 9.0 24 13.1 ESE 20 33 11 18 1015.4 1014.3 0.0
26/06:00pm 32.7 29.8 9.5 24 13.3 ESE 15 32 8 17 1015.2 1014.1 0.0
26/05:30pm 31.1 27.2 9.3 26 12.3 E 20 28 11 15 1015.2 1014.1 0.0
26/05:00pm 32.1 28.9 8.4 23 13.3 E 15 22 8 12 1015.2 1014.1 0.0
26/04:30pm 32.0 28.1 9.5 25 12.8 E 20 37 11 20 1015.4 1014.3 0.0
26/04:00pm 31.5 28.7 11.3 29 11.8 SE 17 28 9 15 1015.6 1014.5 0.0
26/03:30pm 32.5 30.6 10.5 26 12.8 NNE 11 19 6 10 1015.9 1014.8 0.0
26/03:00pm 32.7 30.1 10.7 26 12.8 ENE 15 26 8 14 1016.4 1015.3 0.0
26/02:30pm 30.1 27.2 11.1 31 11.0 E 17 26 9 14 1016.9 1015.9 0.0
26/02:00pm 31.0 28.4 11.9 31 11.3 NE 17 26 9 14 1017.2 1016.2 0.0
26/01:30pm 31.5 29.1 12.8 32 11.2 ENE 17 30 9 16 1017.6 1016.6 0.0
26/01:00pm 30.5 27.5 12.4 33 10.7 ENE 20 32 11 17 1018.0 1017.0 0.0
26/12:30pm 29.2 25.5 12.6 36 9.8 ENE 24 35 13 19 1018.3 1017.3 0.0
26/12:00pm 29.2 25.6 13.0 37 9.6 ENE 24 39 13 21 1018.7 1017.7 0.0
26/11:30am 27.8 24.2 13.0 40 8.8 E 24 32 13 17 1019.1 1018.1 0.0
26/11:00am 27.3 23.9 13.6 43 8.2 E 24 35 13 19 1019.6 1018.5 0.0
26/10:30am 25.9 21.4 13.7 47 7.2 ENE 30 41 16 22 1019.6 1018.5 0.0
26/10:00am 24.8 21.0 13.7 50 6.6 E 26 35 14 19 1019.1 1018.1 0.0
26/09:30am 24.3 20.7 14.1 53 6.1 E 26 35 14 19 1019.1 1018.1 0.0
26/09:00am 23.5 19.9 14.2 56 5.5 E 26 37 14 20 1018.9 1017.9 0.0
26/08:30am 22.1 19.6 14.2 61 4.7 ESE 20 30 11 16 1018.9 1017.9 0.0
26/08:00am 20.4 18.5 14.1 67 3.7 ESE 17 24 9 13 1018.9 1017.9 0.0
26/07:30am 19.4 18.2 14.0 71 3.1 ESE 13 20 7 11 1018.4 1017.4 0.0
26/07:00am 18.9 16.9 14.0 73 2.8 ESE 17 24 9 13 1017.8 1016.8 0.0
26/06:30am 18.8 16.8 13.9 73 2.8 ESE 17 22 9 12 1017.2 1016.2 0.0
26/06:00am 18.7 17.1 14.0 74 2.7 ESE 15 19 8 10 1016.8 1015.8 0.0
26/05:30am 18.7 17.8 13.8 73 2.8 ESE 11 13 6 7 1016.4 1015.3 0.0
26/05:00am 19.0 17.7 13.8 72 3.0 ESE 13 17 7 9 1016.1 1015.0 0.0
26/04:30am 19.3 17.8 14.1 72 3.0 SE 15 20 8 11 1016.3 1015.2 0.0
26/04:00am 19.9 18.3 14.0 69 3.4 SE 15 20 8 11 1016.6 1015.6 0.0
26/03:30am 20.1 18.6 14.2 69 3.4 ESE 15 19 8 10 1016.6 1015.6 0.0
26/03:00am 20.4 18.5 14.1 67 3.7 ESE 17 22 9 12 1016.6 1015.6 0.0
26/02:30am 20.9 19.0 14.1 65 4.0 ESE 17 22 9 12 1016.8 1015.8 0.0
26/02:00am 22.1 19.8 14.7 63 4.4 E 20 30 11 16 1017.0 1016.0 0.0
26/01:30am 22.4 20.2 14.5 61 4.7 E 19 24 10 13 1017.0 1016.0 0.0
26/01:00am 23.0 19.4 14.3 58 5.2 E 26 37 14 20 1016.9 1015.9 0.0
26/12:30am 23.4 20.7 14.7 58 5.2 E 22 32 12 17 1016.6 1015.6 0.0
26/12:00am 23.7 21.0 14.7 57 5.4 E 22 30 12 16 1016.4 1015.3 0.0
 
Date/Time
EDT
Temp
°C
App
Temp
°C
Dew
Point
°C
Rel
Hum
%
Delta-T
°C
Wind Press
QNH
hPa
Press
MSL
hPa
Rain since
9am
mm
Dir  Spd
km/h
Gust
km/h
Spd
kts
Gust
kts
25/11:30pm 24.6 21.7 14.1 52 6.2 E 22 33 12 18 1016.1 1015.0 0.0
25/11:00pm 25.6 22.8 13.1 46 7.3 E 20 32 11 17 1016.0 1014.9 0.0
25/10:30pm 26.5 22.7 12.5 41 8.2 ESE 24 35 13 19 1015.4 1014.3 0.0
25/10:00pm 26.9 24.8 13.6 44 7.9 SSE 17 24 9 13 1015.0 1013.9 0.0
25/09:30pm 27.5 24.1 9.3 32 10.1 S 17 26 9 14 1014.7 1013.6 0.0
25/09:00pm 27.5 23.3 3.9 22 12.0 SW 15 17 8 9 1014.1 1013.0 0.0
25/08:30pm 27.8 23.3 2.1 19 12.7 SW 15 17 8 9 1013.7 1012.7 0.0
25/08:00pm 29.3 24.6 0.9 16 13.8 SW 15 20 8 11 1013.4 1012.4 0.0
25/07:30pm 31.1 25.6 0.5 14 15.0 SW 19 24 10 13 1013.2 1012.2 0.0
25/07:00pm 32.2 26.7 0.3 13 15.7 SSW 19 26 10 14 1012.9 1011.9 0.0
25/06:30pm 33.0 27.4 0.9 13 16.0 SSW 20 28 11 15 1012.9 1011.9 0.0
25/06:00pm 33.6 28.6 1.4 13 16.3 SW 17 28 9 15 1013.0 1012.0 0.0
25/05:30pm 34.0 29.6 2.8 14 16.2 WSW 15 28 8 15 1013.0 1012.0 0.0
25/05:00pm 33.7 29.1 3.5 15 15.8 SW 17 24 9 13 1013.1 1012.1 0.0
25/04:30pm 33.7 29.5 -0.8 11 16.8 SW 11 19 6 10 1013.4 1012.4 0.0
25/04:00pm 34.0 30.0 2.8 14 16.2 SW 13 22 7 12 1013.7 1012.7 0.0
25/03:30pm 33.7 29.4 3.5 15 15.8 WSW 15 24 8 13 1014.3 1013.2 0.0
25/03:00pm 34.0 30.1 5.5 17 15.4 SW 15 24 8 13 1014.7 1013.6 0.0
25/02:30pm 32.6 28.8 6.0 19 14.4 SSW 15 22 8 12 1015.2 1014.1 0.0
25/02:00pm 32.0 29.4 7.6 22 13.5 SW 11 20 6 11 1015.5 1014.4 0.0
25/01:30pm 31.9 30.5 9.4 25 12.8 SSE 7 15 4 8 1015.9 1014.8 0.0
25/01:00pm 30.3 28.9 10.8 30 11.3 SSW 9 20 5 11 1016.1 1015.0 0.0
25/12:30pm 29.7 27.6 11.2 31 10.7 S 13 20 7 11 1016.5 1015.4 0.0
25/12:00pm 28.9 28.2 11.9 35 9.9 SSW 7 9 4 5 1017.0 1016.0 0.0
25/11:30am 28.3 27.5 11.8 36 9.6 WNW 7 13 4 7 1017.5 1016.5 0.0
25/11:00am 26.9 26.4 12.2 40 8.5 SSW 6 11 3 6 1017.9 1016.9 0.0
25/10:30am 25.5 25.0 12.0 43 7.8 WSW 6 9 3 5 1018.2 1017.2 0.0
25/10:00am 23.9 23.3 11.6 46 7.0 SW 6 11 3 6 1018.2 1017.2 0.0

Other Formats:

Comma delimited format used in spreadsheet applications
http://www.bom.gov.au/fwo/IDN60801/IDN60801.95708.axf

JavaScript Object Notation format (JSON) in row-major order
http://www.bom.gov.au/fwo/IDN60801/IDN60801.95708.json